sensor_id;sensor_type;location;lat;lon;timestamp;pressure;altitude;pressure_sealevel;temperature;humidity
79370;BME280;68835;53.096;17.932;2023-04-28T00:01:18;101296.00;;;-0.19;68.15
79370;BME280;68835;53.096;17.932;2023-04-28T00:03:45;101299.23;;;-0.25;68.06
79370;BME280;68835;53.096;17.932;2023-04-28T00:06:14;101296.21;;;-0.27;68.11
79370;BME280;68835;53.096;17.932;2023-04-28T00:08:41;101299.73;;;-0.28;68.09
79370;BME280;68835;53.096;17.932;2023-04-28T00:11:10;101301.05;;;-0.35;68.31
79370;BME280;68835;53.096;17.932;2023-04-28T00:13:38;101296.86;;;-0.43;68.50
79370;BME280;68835;53.096;17.932;2023-04-28T00:16:08;101294.30;;;-0.52;68.27
79370;BME280;68835;53.096;17.932;2023-04-28T00:18:35;101296.63;;;-0.56;68.77
79370;BME280;68835;53.096;17.932;2023-04-28T00:21:02;101293.99;;;-0.59;68.91
79370;BME280;68835;53.096;17.932;2023-04-28T00:23:30;101296.67;;;-0.63;69.21
79370;BME280;68835;53.096;17.932;2023-04-28T00:25:57;101297.46;;;-0.64;68.80
79370;BME280;68835;53.096;17.932;2023-04-28T00:28:24;101296.95;;;-0.61;68.52
79370;BME280;68835;53.096;17.932;2023-04-28T00:30:51;101297.52;;;-0.58;68.96
79370;BME280;68835;53.096;17.932;2023-04-28T00:33:18;101299.33;;;-0.51;68.81
79370;BME280;68835;53.096;17.932;2023-04-28T00:35:45;101297.30;;;-0.48;68.97
79370;BME280;68835;53.096;17.932;2023-04-28T00:38:13;101299.46;;;-0.43;68.80
79370;BME280;68835;53.096;17.932;2023-04-28T00:40:40;101300.33;;;-0.43;68.78
79370;BME280;68835;53.096;17.932;2023-04-28T00:43:08;101303.49;;;-0.48;69.02
79370;BME280;68835;53.096;17.932;2023-04-28T00:45:35;101300.05;;;-0.56;69.08
79370;BME280;68835;53.096;17.932;2023-04-28T00:48:03;101300.09;;;-0.63;69.08
79370;BME280;68835;53.096;17.932;2023-04-28T00:50:30;101298.41;;;-0.68;69.41
79370;BME280;68835;53.096;17.932;2023-04-28T00:52:59;101301.47;;;-0.74;69.23
79370;BME280;68835;53.096;17.932;2023-04-28T00:55:30;101301.48;;;-0.79;69.32
79370;BME280;68835;53.096;17.932;2023-04-28T00:57:58;101299.36;;;-0.80;69.17
79370;BME280;68835;53.096;17.932;2023-04-28T01:00:25;101296.67;;;-0.79;69.01
79370;BME280;68835;53.096;17.932;2023-04-28T01:02:54;101299.44;;;-0.79;69.45
79370;BME280;68835;53.096;17.932;2023-04-28T01:05:24;101293.40;;;-0.79;69.33
79370;BME280;68835;53.096;17.932;2023-04-28T01:07:52;101297.06;;;-0.76;68.97
79370;BME280;68835;53.096;17.932;2023-04-28T01:10:20;101294.66;;;-0.73;69.56
79370;BME280;68835;53.096;17.932;2023-04-28T01:12:48;101295.55;;;-0.75;69.45
79370;BME280;68835;53.096;17.932;2023-04-28T01:15:17;101294.57;;;-0.77;69.13
79370;BME280;68835;53.096;17.932;2023-04-28T01:17:46;101296.32;;;-0.82;69.26
79370;BME280;68835;53.096;17.932;2023-04-28T01:20:14;101294.40;;;-0.85;69.56
79370;BME280;68835;53.096;17.932;2023-04-28T01:22:42;101292.85;;;-0.85;69.79
79370;BME280;68835;53.096;17.932;2023-04-28T01:25:10;101291.48;;;-0.83;69.55
79370;BME280;68835;53.096;17.932;2023-04-28T01:27:38;101289.06;;;-0.77;69.84
79370;BME280;68835;53.096;17.932;2023-04-28T01:30:06;101291.50;;;-0.74;69.48
79370;BME280;68835;53.096;17.932;2023-04-28T01:32:33;101289.88;;;-0.78;70.12
79370;BME280;68835;53.096;17.932;2023-04-28T01:35:03;101288.52;;;-0.83;69.83
79370;BME280;68835;53.096;17.932;2023-04-28T01:37:30;101289.23;;;-0.83;69.58
79370;BME280;68835;53.096;17.932;2023-04-28T01:39:57;101288.63;;;-0.84;69.62
79370;BME280;68835;53.096;17.932;2023-04-28T01:42:25;101288.46;;;-0.86;69.85
79370;BME280;68835;53.096;17.932;2023-04-28T01:44:52;101287.61;;;-0.89;69.82
79370;BME280;68835;53.096;17.932;2023-04-28T01:47:20;101292.92;;;-0.95;70.08
79370;BME280;68835;53.096;17.932;2023-04-28T01:49:47;101293.73;;;-1.03;70.30
79370;BME280;68835;53.096;17.932;2023-04-28T01:52:17;101292.01;;;-1.14;70.18
79370;BME280;68835;53.096;17.932;2023-04-28T01:54:46;101294.48;;;-1.18;70.64
79370;BME280;68835;53.096;17.932;2023-04-28T01:57:13;101287.79;;;-1.18;70.13
79370;BME280;68835;53.096;17.932;2023-04-28T01:59:44;101287.92;;;-1.13;70.33
79370;BME280;68835;53.096;17.932;2023-04-28T02:02:11;101291.66;;;-1.11;70.49
79370;BME280;68835;53.096;17.932;2023-04-28T02:04:39;101292.38;;;-1.13;70.36
79370;BME280;68835;53.096;17.932;2023-04-28T02:07:07;101293.21;;;-1.14;70.22
79370;BME280;68835;53.096;17.932;2023-04-28T02:09:34;101292.70;;;-1.09;70.38
79370;BME280;68835;53.096;17.932;2023-04-28T02:12:01;101289.16;;;-1.05;70.33
79370;BME280;68835;53.096;17.932;2023-04-28T02:14:29;101290.31;;;-1.03;70.42
79370;BME280;68835;53.096;17.932;2023-04-28T02:16:58;101292.35;;;-1.06;70.62
79370;BME280;68835;53.096;17.932;2023-04-28T02:19:26;101290.88;;;-1.15;70.47
79370;BME280;68835;53.096;17.932;2023-04-28T02:21:53;101283.48;;;-1.24;70.63
79370;BME280;68835;53.096;17.932;2023-04-28T02:24:20;101290.13;;;-1.24;70.60
79370;BME280;68835;53.096;17.932;2023-04-28T02:26:47;101287.95;;;-1.29;70.55
79370;BME280;68835;53.096;17.932;2023-04-28T02:29:14;101286.81;;;-1.35;70.72
79370;BME280;68835;53.096;17.932;2023-04-28T02:31:42;101285.95;;;-1.38;70.87
79370;BME280;68835;53.096;17.932;2023-04-28T02:34:09;101288.52;;;-1.40;70.57
79370;BME280;68835;53.096;17.932;2023-04-28T02:36:36;101285.26;;;-1.41;70.67
79370;BME280;68835;53.096;17.932;2023-04-28T02:39:04;101287.84;;;-1.38;70.89
79370;BME280;68835;53.096;17.932;2023-04-28T02:41:32;101284.05;;;-1.36;70.91
79370;BME280;68835;53.096;17.932;2023-04-28T02:44:00;101288.96;;;-1.37;71.00
79370;BME280;68835;53.096;17.932;2023-04-28T02:46:28;101286.45;;;-1.33;70.54
79370;BME280;68835;53.096;17.932;2023-04-28T02:48:57;101288.45;;;-1.31;71.20
79370;BME280;68835;53.096;17.932;2023-04-28T02:51:24;101291.36;;;-1.37;71.26
79370;BME280;68835;53.096;17.932;2023-04-28T02:53:52;101290.39;;;-1.38;71.10
79370;BME280;68835;53.096;17.932;2023-04-28T02:56:21;101283.35;;;-1.36;71.34
79370;BME280;68835;53.096;17.932;2023-04-28T02:58:48;101289.38;;;-1.31;71.00
79370;BME280;68835;53.096;17.932;2023-04-28T03:01:15;101288.35;;;-1.25;70.95
79370;BME280;68835;53.096;17.932;2023-04-28T03:03:42;101284.83;;;-1.24;70.84
79370;BME280;68835;53.096;17.932;2023-04-28T03:06:09;101282.15;;;-1.23;71.13
79370;BME280;68835;53.096;17.932;2023-04-28T03:08:36;101281.48;;;-1.28;71.13
79370;BME280;68835;53.096;17.932;2023-04-28T03:11:03;101279.38;;;-1.31;71.20
79370;BME280;68835;53.096;17.932;2023-04-28T03:13:31;101277.02;;;-1.33;71.44
79370;BME280;68835;53.096;17.932;2023-04-28T03:15:58;101274.79;;;-1.33;71.14
79370;BME280;68835;53.096;17.932;2023-04-28T03:18:25;101276.28;;;-1.34;71.05
79370;BME280;68835;53.096;17.932;2023-04-28T03:20:52;101275.53;;;-1.37;71.17
79370;BME280;68835;53.096;17.932;2023-04-28T03:23:20;101276.31;;;-1.38;71.31
79370;BME280;68835;53.096;17.932;2023-04-28T03:25:47;101278.22;;;-1.38;71.22
79370;BME280;68835;53.096;17.932;2023-04-28T03:28:14;101278.45;;;-1.35;71.02
79370;BME280;68835;53.096;17.932;2023-04-28T03:30:42;101279.61;;;-1.30;71.21
79370;BME280;68835;53.096;17.932;2023-04-28T03:33:09;101280.54;;;-1.27;71.33
79370;BME280;68835;53.096;17.932;2023-04-28T03:35:36;101286.30;;;-1.28;71.46
79370;BME280;68835;53.096;17.932;2023-04-28T03:38:03;101287.04;;;-1.32;71.52
79370;BME280;68835;53.096;17.932;2023-04-28T03:40:30;101287.27;;;-1.36;71.94
79370;BME280;68835;53.096;17.932;2023-04-28T03:43:24;101287.84;;;-1.35;71.63
79370;BME280;68835;53.096;17.932;2023-04-28T03:46:10;101290.33;;;-1.32;71.64
79370;BME280;68835;53.096;17.932;2023-04-28T03:48:38;101287.13;;;-1.31;71.89
79370;BME280;68835;53.096;17.932;2023-04-28T03:51:05;101290.14;;;-1.29;71.53
79370;BME280;68835;53.096;17.932;2023-04-28T03:53:33;101289.57;;;-1.28;71.53
79370;BME280;68835;53.096;17.932;2023-04-28T03:56:00;101288.06;;;-1.27;71.34
79370;BME280;68835;53.096;17.932;2023-04-28T03:58:27;101294.65;;;-1.29;71.82
79370;BME280;68835;53.096;17.932;2023-04-28T04:00:54;101296.55;;;-1.34;72.28
79370;BME280;68835;53.096;17.932;2023-04-28T04:03:25;101294.28;;;-1.39;72.11
79370;BME280;68835;53.096;17.932;2023-04-28T04:05:53;101297.12;;;-1.43;72.52
79370;BME280;68835;53.096;17.932;2023-04-28T04:08:23;101296.31;;;-1.42;72.66
79370;BME280;68835;53.096;17.932;2023-04-28T04:10:51;101299.45;;;-1.39;72.02
79370;BME280;68835;53.096;17.932;2023-04-28T04:13:21;101301.33;;;-1.36;72.38
79370;BME280;68835;53.096;17.932;2023-04-28T04:15:49;101305.27;;;-1.39;72.39
79370;BME280;68835;53.096;17.932;2023-04-28T04:18:17;101310.28;;;-1.39;72.47
79370;BME280;68835;53.096;17.932;2023-04-28T04:21:05;101314.09;;;-1.36;72.72
79370;BME280;68835;53.096;17.932;2023-04-28T04:23:32;101312.41;;;-1.35;72.75
79370;BME280;68835;53.096;17.932;2023-04-28T04:25:59;101313.71;;;-1.34;72.64
79370;BME280;68835;53.096;17.932;2023-04-28T04:28:27;101313.96;;;-1.30;72.87
79370;BME280;68835;53.096;17.932;2023-04-28T04:30:54;101311.36;;;-1.23;72.31
79370;BME280;68835;53.096;17.932;2023-04-28T04:33:21;101317.73;;;-1.12;72.69
79370;BME280;68835;53.096;17.932;2023-04-28T04:35:50;101317.86;;;-1.07;72.63
79370;BME280;68835;53.096;17.932;2023-04-28T04:38:17;101317.85;;;-1.08;72.64
79370;BME280;68835;53.096;17.932;2023-04-28T04:40:45;101326.49;;;-1.07;72.95
79370;BME280;68835;53.096;17.932;2023-04-28T04:43:12;101324.10;;;-1.04;72.94
79370;BME280;68835;53.096;17.932;2023-04-28T04:45:44;101322.63;;;-1.00;72.96
79370;BME280;68835;53.096;17.932;2023-04-28T04:48:12;101320.06;;;-0.97;72.69
79370;BME280;68835;53.096;17.932;2023-04-28T04:50:40;101321.23;;;-0.85;72.58
79370;BME280;68835;53.096;17.932;2023-04-28T04:53:11;101319.73;;;-0.73;72.34
79370;BME280;68835;53.096;17.932;2023-04-28T04:55:38;101320.29;;;-0.65;72.59
79370;BME280;68835;53.096;17.932;2023-04-28T04:58:06;101317.62;;;-0.55;72.23
79370;BME280;68835;53.096;17.932;2023-04-28T05:00:45;101324.30;;;-0.39;72.27
79370;BME280;68835;53.096;17.932;2023-04-28T05:03:13;101321.40;;;-0.28;72.06
79370;BME280;68835;53.096;17.932;2023-04-28T05:05:40;101324.86;;;-0.14;72.37
79370;BME280;68835;53.096;17.932;2023-04-28T05:08:12;101323.48;;;-0.03;72.07
79370;BME280;68835;53.096;17.932;2023-04-28T05:10:39;101325.69;;;0.02;72.19
79370;BME280;68835;53.096;17.932;2023-04-28T05:13:07;101324.89;;;0.09;72.33
79370;BME280;68835;53.096;17.932;2023-04-28T05:15:35;101326.02;;;0.10;72.33
79370;BME280;68835;53.096;17.932;2023-04-28T05:18:22;101323.78;;;0.13;72.09
79370;BME280;68835;53.096;17.932;2023-04-28T05:20:50;101322.89;;;0.21;72.04
79370;BME280;68835;53.096;17.932;2023-04-28T05:23:18;101326.81;;;0.29;72.22
79370;BME280;68835;53.096;17.932;2023-04-28T05:25:45;101326.51;;;0.36;72.24
79370;BME280;68835;53.096;17.932;2023-04-28T05:28:14;101326.52;;;0.44;72.25
79370;BME280;68835;53.096;17.932;2023-04-28T05:30:42;101325.00;;;0.53;72.07
79370;BME280;68835;53.096;17.932;2023-04-28T05:33:11;101321.78;;;0.69;71.76
79370;BME280;68835;53.096;17.932;2023-04-28T05:35:38;101322.96;;;0.83;71.72
79370;BME280;68835;53.096;17.932;2023-04-28T05:38:05;101323.58;;;1.00;71.63
79370;BME280;68835;53.096;17.932;2023-04-28T05:40:32;101325.37;;;1.18;71.73
79370;BME280;68835;53.096;17.932;2023-04-28T05:43:00;101323.30;;;1.34;71.64
79370;BME280;68835;53.096;17.932;2023-04-28T05:45:27;101323.53;;;1.54;71.28
79370;BME280;68835;53.096;17.932;2023-04-28T05:47:55;101321.90;;;1.83;70.86
79370;BME280;68835;53.096;17.932;2023-04-28T05:50:23;101321.42;;;2.13;70.27
79370;BME280;68835;53.096;17.932;2023-04-28T05:52:50;101317.74;;;2.42;69.50
79370;BME280;68835;53.096;17.932;2023-04-28T05:55:18;101320.30;;;2.72;69.38
79370;BME280;68835;53.096;17.932;2023-04-28T05:57:45;101317.20;;;2.92;69.08
79370;BME280;68835;53.096;17.932;2023-04-28T06:00:13;101321.13;;;3.08;69.34
79370;BME280;68835;53.096;17.932;2023-04-28T06:02:41;101318.96;;;3.21;69.09
79370;BME280;68835;53.096;17.932;2023-04-28T06:05:08;101320.06;;;3.36;67.35
79370;BME280;68835;53.096;17.932;2023-04-28T06:07:35;101322.05;;;3.64;66.21
79370;BME280;68835;53.096;17.932;2023-04-28T06:10:03;101321.92;;;3.91;64.80
79370;BME280;68835;53.096;17.932;2023-04-28T06:12:31;101323.73;;;4.14;64.28
79370;BME280;68835;53.096;17.932;2023-04-28T06:14:59;101321.19;;;4.35;64.02
79370;BME280;68835;53.096;17.932;2023-04-28T06:17:26;101322.19;;;4.54;64.07
79370;BME280;68835;53.096;17.932;2023-04-28T06:19:56;101325.30;;;4.70;63.44
79370;BME280;68835;53.096;17.932;2023-04-28T06:22:25;101325.23;;;4.85;62.98
79370;BME280;68835;53.096;17.932;2023-04-28T06:24:52;101324.54;;;4.97;63.49
79370;BME280;68835;53.096;17.932;2023-04-28T06:27:26;101327.38;;;5.11;62.56
79370;BME280;68835;53.096;17.932;2023-04-28T06:29:58;101326.34;;;5.24;62.65
79370;BME280;68835;53.096;17.932;2023-04-28T06:32:25;101329.55;;;5.39;61.52
79370;BME280;68835;53.096;17.932;2023-04-28T06:34:53;101327.89;;;5.54;60.68
79370;BME280;68835;53.096;17.932;2023-04-28T06:37:20;101326.38;;;5.68;60.91
79370;BME280;68835;53.096;17.932;2023-04-28T06:39:48;101324.84;;;5.82;60.34
79370;BME280;68835;53.096;17.932;2023-04-28T06:42:16;101323.21;;;5.98;59.54
79370;BME280;68835;53.096;17.932;2023-04-28T06:44:51;101319.59;;;6.13;58.68
79370;BME280;68835;53.096;17.932;2023-04-28T06:47:20;101316.30;;;6.27;59.17
79370;BME280;68835;53.096;17.932;2023-04-28T06:49:47;101313.22;;;6.38;58.76
79370;BME280;68835;53.096;17.932;2023-04-28T06:52:16;101312.06;;;6.49;58.09
79370;BME280;68835;53.096;17.932;2023-04-28T06:54:43;101312.18;;;6.63;58.17
79370;BME280;68835;53.096;17.932;2023-04-28T06:57:10;101312.70;;;6.78;57.37
79370;BME280;68835;53.096;17.932;2023-04-28T06:59:37;101313.52;;;6.96;56.13
79370;BME280;68835;53.096;17.932;2023-04-28T07:02:05;101311.93;;;7.16;55.56
79370;BME280;68835;53.096;17.932;2023-04-28T07:04:32;101308.44;;;7.32;55.91
79370;BME280;68835;53.096;17.932;2023-04-28T07:07:00;101309.16;;;7.49;54.62
79370;BME280;68835;53.096;17.932;2023-04-28T07:09:27;101301.59;;;7.64;54.54
79370;BME280;68835;53.096;17.932;2023-04-28T07:11:54;101299.67;;;7.75;53.00
79370;BME280;68835;53.096;17.932;2023-04-28T07:14:22;101298.14;;;7.88;53.41
79370;BME280;68835;53.096;17.932;2023-04-28T07:16:49;101294.05;;;8.02;52.33
79370;BME280;68835;53.096;17.932;2023-04-28T07:19:16;101290.77;;;8.16;51.22
79370;BME280;68835;53.096;17.932;2023-04-28T07:21:43;101288.34;;;8.29;50.81
79370;BME280;68835;53.096;17.932;2023-04-28T07:24:11;101283.45;;;8.40;50.94
79370;BME280;68835;53.096;17.932;2023-04-28T07:26:39;101281.41;;;8.48;50.21
79370;BME280;68835;53.096;17.932;2023-04-28T07:29:06;101279.63;;;8.60;49.95
79370;BME280;68835;53.096;17.932;2023-04-28T07:31:35;101274.03;;;8.72;49.26
79370;BME280;68835;53.096;17.932;2023-04-28T07:34:02;101275.67;;;8.82;47.71
79370;BME280;68835;53.096;17.932;2023-04-28T07:36:32;101272.84;;;8.87;46.61
79370;BME280;68835;53.096;17.932;2023-04-28T07:38:59;101275.35;;;8.96;47.88
79370;BME280;68835;53.096;17.932;2023-04-28T07:41:27;101274.95;;;9.09;47.77
79370;BME280;68835;53.096;17.932;2023-04-28T07:43:55;101277.59;;;9.24;45.85
79370;BME280;68835;53.096;17.932;2023-04-28T07:46:22;101275.11;;;9.37;45.24
79370;BME280;68835;53.096;17.932;2023-04-28T07:48:49;101264.73;;;9.49;46.02
79370;BME280;68835;53.096;17.932;2023-04-28T07:51:16;101270.44;;;9.63;45.31
79370;BME280;68835;53.096;17.932;2023-04-28T07:53:43;101263.72;;;9.75;45.69
79370;BME280;68835;53.096;17.932;2023-04-28T07:56:11;101254.25;;;9.81;45.53
79370;BME280;68835;53.096;17.932;2023-04-28T07:58:39;101249.42;;;9.85;45.11
79370;BME280;68835;53.096;17.932;2023-04-28T08:01:07;101256.95;;;10.02;44.65
79370;BME280;68835;53.096;17.932;2023-04-28T08:03:34;101259.15;;;10.15;40.98
79370;BME280;68835;53.096;17.932;2023-04-28T08:06:01;101259.73;;;10.18;39.35
79370;BME280;68835;53.096;17.932;2023-04-28T08:08:29;101256.26;;;10.10;37.11
79370;BME280;68835;53.096;17.932;2023-04-28T08:11:00;101252.65;;;10.05;38.30
79370;BME280;68835;53.096;17.932;2023-04-28T08:13:27;101248.27;;;10.04;37.84
79370;BME280;68835;53.096;17.932;2023-04-28T08:15:55;101250.02;;;10.05;38.70
79370;BME280;68835;53.096;17.932;2023-04-28T08:18:22;101246.78;;;10.09;38.56
79370;BME280;68835;53.096;17.932;2023-04-28T08:20:50;101244.13;;;10.07;38.54
79370;BME280;68835;53.096;17.932;2023-04-28T08:23:18;101242.66;;;10.04;37.96
79370;BME280;68835;53.096;17.932;2023-04-28T08:25:48;101242.68;;;10.05;36.91
79370;BME280;68835;53.096;17.932;2023-04-28T08:28:15;101239.82;;;10.01;37.54
79370;BME280;68835;53.096;17.932;2023-04-28T08:30:42;101243.14;;;10.02;37.95
79370;BME280;68835;53.096;17.932;2023-04-28T08:33:10;101240.31;;;10.09;38.65
79370;BME280;68835;53.096;17.932;2023-04-28T08:35:37;101237.83;;;10.15;37.35
79370;BME280;68835;53.096;17.932;2023-04-28T08:38:06;101230.43;;;10.14;37.83
79370;BME280;68835;53.096;17.932;2023-04-28T08:40:37;101227.24;;;10.20;38.23
79370;BME280;68835;53.096;17.932;2023-04-28T08:43:04;101225.66;;;10.20;38.27
79370;BME280;68835;53.096;17.932;2023-04-28T08:45:40;101221.70;;;10.31;37.46
79370;BME280;68835;53.096;17.932;2023-04-28T08:48:17;101221.52;;;10.49;37.98
79370;BME280;68835;53.096;17.932;2023-04-28T08:50:51;101219.36;;;10.87;37.42
79370;BME280;68835;53.096;17.932;2023-04-28T08:53:23;101211.70;;;11.23;36.83
79370;BME280;68835;53.096;17.932;2023-04-28T08:55:56;101209.08;;;11.48;35.38
79370;BME280;68835;53.096;17.932;2023-04-28T08:58:26;101207.86;;;11.62;34.75
79370;BME280;68835;53.096;17.932;2023-04-28T09:00:54;101200.58;;;11.68;35.99
79370;BME280;68835;53.096;17.932;2023-04-28T09:03:21;101201.30;;;11.69;35.66
79370;BME280;68835;53.096;17.932;2023-04-28T09:05:50;101201.63;;;11.68;34.52
79370;BME280;68835;53.096;17.932;2023-04-28T09:08:17;101197.55;;;11.78;34.72
79370;BME280;68835;53.096;17.932;2023-04-28T09:10:44;101197.98;;;11.71;35.43
79370;BME280;68835;53.096;17.932;2023-04-28T09:13:24;101193.67;;;12.03;34.56
79370;BME280;68835;53.096;17.932;2023-04-28T09:16:00;101194.05;;;12.23;34.87
79370;BME280;68835;53.096;17.932;2023-04-28T09:18:29;101190.72;;;12.59;33.78
79370;BME280;68835;53.096;17.932;2023-04-28T09:23:31;101187.29;;;12.49;32.58
79370;BME280;68835;53.096;17.932;2023-04-28T09:26:03;101187.64;;;12.30;33.15
79370;BME280;68835;53.096;17.932;2023-04-28T09:28:34;101188.49;;;12.12;32.60
79370;BME280;68835;53.096;17.932;2023-04-28T09:31:02;101184.86;;;11.99;33.04
79370;BME280;68835;53.096;17.932;2023-04-28T09:33:55;101183.86;;;12.40;32.94
79370;BME280;68835;53.096;17.932;2023-04-28T09:36:27;101182.86;;;12.85;31.89
79370;BME280;68835;53.096;17.932;2023-04-28T09:38:57;101179.48;;;13.28;32.20
79370;BME280;68835;53.096;17.932;2023-04-28T09:41:43;101179.87;;;13.71;31.87
79370;BME280;68835;53.096;17.932;2023-04-28T09:44:15;101176.69;;;14.23;30.90
79370;BME280;68835;53.096;17.932;2023-04-28T09:46:43;101168.66;;;14.65;31.10
79370;BME280;68835;53.096;17.932;2023-04-28T09:49:11;101162.66;;;15.01;30.49
79370;BME280;68835;53.096;17.932;2023-04-28T09:51:39;101157.80;;;15.40;30.65
79370;BME280;68835;53.096;17.932;2023-04-28T09:54:06;101156.77;;;15.84;29.01
79370;BME280;68835;53.096;17.932;2023-04-28T09:56:35;101164.77;;;16.07;27.67
79370;BME280;68835;53.096;17.932;2023-04-28T09:59:05;101165.30;;;16.06;26.58
79370;BME280;68835;53.096;17.932;2023-04-28T10:01:39;101162.89;;;15.97;26.72
79370;BME280;68835;53.096;17.932;2023-04-28T10:04:07;101160.86;;;16.10;27.75
79370;BME280;68835;53.096;17.932;2023-04-28T10:06:38;101157.27;;;16.46;27.05
79370;BME280;68835;53.096;17.932;2023-04-28T10:09:06;101152.64;;;16.72;26.97
79370;BME280;68835;53.096;17.932;2023-04-28T10:11:34;101150.23;;;16.87;25.81
79370;BME280;68835;53.096;17.932;2023-04-28T10:14:03;101143.31;;;16.89;25.74
79370;BME280;68835;53.096;17.932;2023-04-28T10:16:30;101131.71;;;17.01;26.61
79370;BME280;68835;53.096;17.932;2023-04-28T10:19:00;101133.16;;;17.45;26.81
79370;BME280;68835;53.096;17.932;2023-04-28T10:21:34;101140.03;;;17.78;24.32
79370;BME280;68835;53.096;17.932;2023-04-28T10:24:14;101136.48;;;17.80;24.32
79370;BME280;68835;53.096;17.932;2023-04-28T10:29:32;101132.31;;;17.70;24.00
79370;BME280;68835;53.096;17.932;2023-04-28T10:32:21;101129.23;;;17.92;24.12
79370;BME280;68835;53.096;17.932;2023-04-28T10:34:49;101125.11;;;18.30;23.75
79370;BME280;68835;53.096;17.932;2023-04-28T10:37:18;101127.79;;;18.50;23.44
79370;BME280;68835;53.096;17.932;2023-04-28T10:45:57;101112.84;;;18.88;21.81
79370;BME280;68835;53.096;17.932;2023-04-28T10:56:22;101111.74;;;19.77;20.82
79370;BME280;68835;53.096;17.932;2023-04-28T10:58:54;101107.05;;;19.96;20.99
79370;BME280;68835;53.096;17.932;2023-04-28T11:03:59;101106.77;;;20.61;20.01
79370;BME280;68835;53.096;17.932;2023-04-28T11:06:33;101099.06;;;20.89;20.08
79370;BME280;68835;53.096;17.932;2023-04-28T11:14:56;101106.71;;;21.83;18.90
79370;BME280;68835;53.096;17.932;2023-04-28T11:17:40;101100.01;;;21.93;18.96
79370;BME280;68835;53.096;17.932;2023-04-28T11:20:11;101096.54;;;22.66;19.52
79370;BME280;68835;53.096;17.932;2023-04-28T11:22:39;101099.23;;;22.87;17.97
79370;BME280;68835;53.096;17.932;2023-04-28T11:25:07;101089.63;;;22.60;18.56
79370;BME280;68835;53.096;17.932;2023-04-28T11:27:34;101085.83;;;22.72;18.64
79370;BME280;68835;53.096;17.932;2023-04-28T11:30:02;101087.25;;;23.08;18.66
79370;BME280;68835;53.096;17.932;2023-04-28T11:32:32;101087.41;;;23.61;18.41
79370;BME280;68835;53.096;17.932;2023-04-28T11:35:00;101087.86;;;24.31;18.13
79370;BME280;68835;53.096;17.932;2023-04-28T11:37:27;101086.40;;;24.53;17.95
79370;BME280;68835;53.096;17.932;2023-04-28T11:39:55;101088.45;;;24.59;17.46
79370;BME280;68835;53.096;17.932;2023-04-28T11:42:23;101085.02;;;24.64;17.00
79370;BME280;68835;53.096;17.932;2023-04-28T11:44:53;101082.62;;;24.90;17.50
79370;BME280;68835;53.096;17.932;2023-04-28T11:47:30;101080.97;;;25.12;16.72
79370;BME280;68835;53.096;17.932;2023-04-28T11:49:58;101076.98;;;24.85;16.64
79370;BME280;68835;53.096;17.932;2023-04-28T11:52:26;101075.09;;;24.91;17.28
79370;BME280;68835;53.096;17.932;2023-04-28T11:54:57;101080.02;;;25.21;16.53
79370;BME280;68835;53.096;17.932;2023-04-28T11:57:28;101070.77;;;24.46;16.86
79370;BME280;68835;53.096;17.932;2023-04-28T12:00:12;101071.45;;;24.08;17.59
79370;BME280;68835;53.096;17.932;2023-04-28T12:02:40;101067.75;;;24.49;17.96
79370;BME280;68835;53.096;17.932;2023-04-28T12:05:08;101064.80;;;25.17;17.68
79370;BME280;68835;53.096;17.932;2023-04-28T12:07:40;101062.91;;;25.66;17.44
79370;BME280;68835;53.096;17.932;2023-04-28T12:10:13;101061.41;;;25.75;17.42
79370;BME280;68835;53.096;17.932;2023-04-28T12:12:44;101062.58;;;25.88;17.13
79370;BME280;68835;53.096;17.932;2023-04-28T12:15:13;101062.77;;;25.99;16.66
79370;BME280;68835;53.096;17.932;2023-04-28T12:17:41;101059.80;;;26.26;16.18
79370;BME280;68835;53.096;17.932;2023-04-28T12:20:10;101060.92;;;26.14;15.37
79370;BME280;68835;53.096;17.932;2023-04-28T12:22:46;101059.20;;;25.84;15.71
79370;BME280;68835;53.096;17.932;2023-04-28T12:25:15;101055.92;;;25.73;15.94
79370;BME280;68835;53.096;17.932;2023-04-28T12:28:03;101055.99;;;25.52;16.20
79370;BME280;68835;53.096;17.932;2023-04-28T12:30:33;101052.52;;;25.99;16.36
79370;BME280;68835;53.096;17.932;2023-04-28T12:33:01;101043.38;;;26.31;16.37
79370;BME280;68835;53.096;17.932;2023-04-28T12:35:28;101043.01;;;26.06;15.20
79370;BME280;68835;53.096;17.932;2023-04-28T12:37:56;101036.04;;;25.73;16.11
79370;BME280;68835;53.096;17.932;2023-04-28T12:40:24;101030.70;;;26.27;16.50
79370;BME280;68835;53.096;17.932;2023-04-28T12:42:52;101034.00;;;26.91;15.48
79370;BME280;68835;53.096;17.932;2023-04-28T12:45:19;101027.88;;;26.85;16.02
79370;BME280;68835;53.096;17.932;2023-04-28T12:47:46;101025.08;;;27.14;15.83
79370;BME280;68835;53.096;17.932;2023-04-28T12:50:14;101020.34;;;27.51;15.71
79370;BME280;68835;53.096;17.932;2023-04-28T12:52:41;101013.08;;;27.96;16.06
79370;BME280;68835;53.096;17.932;2023-04-28T12:55:08;101012.51;;;28.52;15.50
79370;BME280;68835;53.096;17.932;2023-04-28T12:57:35;101011.23;;;28.69;14.80
79370;BME280;68835;53.096;17.932;2023-04-28T13:00:04;101008.78;;;28.62;14.95
79370;BME280;68835;53.096;17.932;2023-04-28T13:02:32;101010.73;;;28.57;14.40
79370;BME280;68835;53.096;17.932;2023-04-28T13:04:59;101005.86;;;28.51;14.62
79370;BME280;68835;53.096;17.932;2023-04-28T13:07:27;101000.38;;;28.04;15.13
79370;BME280;68835;53.096;17.932;2023-04-28T13:09:56;100996.75;;;27.51;14.56
79370;BME280;68835;53.096;17.932;2023-04-28T13:12:23;100994.20;;;27.27;15.36
79370;BME280;68835;53.096;17.932;2023-04-28T13:14:51;100989.33;;;27.87;15.42
79370;BME280;68835;53.096;17.932;2023-04-28T13:17:18;100992.73;;;27.84;15.06
79370;BME280;68835;53.096;17.932;2023-04-28T13:19:45;100993.99;;;27.13;15.50